sensor_id;sensor_type;location;lat;lon;timestamp;P1;durP1;ratioP1;P2;durP2;ratioP2
44434;SDS011;30138;20.964;105.830;2023-12-22T00:00:31;59.35;;;31.20;;
44434;SDS011;30138;20.964;105.830;2023-12-22T00:05:37;40.38;;;22.20;;
44434;SDS011;30138;20.964;105.830;2023-12-22T00:10:44;52.97;;;30.80;;
44434;SDS011;30138;20.964;105.830;2023-12-22T00:15:52;41.70;;;22.45;;
44434;SDS011;30138;20.964;105.830;2023-12-22T00:20:59;65.40;;;33.50;;
44434;SDS011;30138;20.964;105.830;2023-12-22T00:26:06;42.80;;;23.63;;
44434;SDS011;30138;20.964;105.830;2023-12-22T00:31:15;59.00;;;32.92;;
44434;SDS011;30138;20.964;105.830;2023-12-22T00:36:21;41.72;;;23.17;;
44434;SDS011;30138;20.964;105.830;2023-12-22T00:41:28;63.60;;;32.30;;
44434;SDS011;30138;20.964;105.830;2023-12-22T00:46:37;44.78;;;23.52;;
44434;SDS011;30138;20.964;105.830;2023-12-22T00:51:45;69.63;;;33.63;;
44434;SDS011;30138;20.964;105.830;2023-12-22T00:56:52;59.45;;;32.47;;
44434;SDS011;30138;20.964;105.830;2023-12-22T01:02:03;49.00;;;24.73;;
44434;SDS011;30138;20.964;105.830;2023-12-22T01:07:09;60.33;;;32.88;;
44434;SDS011;30138;20.964;105.830;2023-12-22T01:12:15;43.03;;;23.33;;
44434;SDS011;30138;20.964;105.830;2023-12-22T01:17:24;59.20;;;31.30;;
44434;SDS011;30138;20.964;105.830;2023-12-22T01:22:30;58.70;;;31.48;;
44434;SDS011;30138;20.964;105.830;2023-12-22T01:27:39;39.35;;;21.98;;
44434;SDS011;30138;20.964;105.830;2023-12-22T01:32:50;64.13;;;31.60;;
44434;SDS011;30138;20.964;105.830;2023-12-22T01:37:57;41.42;;;22.08;;
44434;SDS011;30138;20.964;105.830;2023-12-22T01:43:04;61.17;;;30.90;;
44434;SDS011;30138;20.964;105.830;2023-12-22T01:48:12;59.75;;;32.63;;
44434;SDS011;30138;20.964;105.830;2023-12-22T01:53:19;47.47;;;22.85;;
44434;SDS011;30138;20.964;105.830;2023-12-22T01:58:25;59.58;;;33.17;;
44434;SDS011;30138;20.964;105.830;2023-12-22T02:03:41;59.03;;;32.55;;
44434;SDS011;30138;20.964;105.830;2023-12-22T02:08:47;62.88;;;31.48;;
44434;SDS011;30138;20.964;105.830;2023-12-22T02:13:53;44.08;;;21.95;;
44434;SDS011;30138;20.964;105.830;2023-12-22T02:19:03;57.67;;;31.73;;
44434;SDS011;30138;20.964;105.830;2023-12-22T02:24:19;56.35;;;30.65;;
44434;SDS011;30138;20.964;105.830;2023-12-22T02:29:27;42.13;;;22.02;;
44434;SDS011;30138;20.964;105.830;2023-12-22T02:34:37;55.38;;;31.85;;
44434;SDS011;30138;20.964;105.830;2023-12-22T02:39:48;58.40;;;32.33;;
44434;SDS011;30138;20.964;105.830;2023-12-22T02:44:56;62.83;;;31.55;;
44434;SDS011;30138;20.964;105.830;2023-12-22T02:50:03;53.85;;;31.13;;
44434;SDS011;30138;20.964;105.830;2023-12-22T02:55:13;56.58;;;30.13;;
44434;SDS011;30138;20.964;105.830;2023-12-22T03:00:19;56.83;;;30.77;;
44434;SDS011;30138;20.964;105.830;2023-12-22T03:05:25;54.88;;;28.38;;
44434;SDS011;30138;20.964;105.830;2023-12-22T03:10:35;54.53;;;27.52;;
44434;SDS011;30138;20.964;105.830;2023-12-22T03:15:41;48.72;;;27.40;;
44434;SDS011;30138;20.964;105.830;2023-12-22T03:20:48;50.65;;;28.13;;
44434;SDS011;30138;20.964;105.830;2023-12-22T03:26:02;46.70;;;26.45;;
44434;SDS011;30138;20.964;105.830;2023-12-22T03:31:08;42.20;;;25.33;;
44434;SDS011;30138;20.964;105.830;2023-12-22T03:36:15;49.53;;;26.58;;
44434;SDS011;30138;20.964;105.830;2023-12-22T03:41:23;47.08;;;26.05;;
44434;SDS011;30138;20.964;105.830;2023-12-22T03:46:31;47.03;;;26.85;;
44434;SDS011;30138;20.964;105.830;2023-12-22T03:51:37;47.25;;;27.83;;
44434;SDS011;30138;20.964;105.830;2023-12-22T03:56:45;52.55;;;27.30;;
44434;SDS011;30138;20.964;105.830;2023-12-22T04:01:52;54.33;;;28.65;;
44434;SDS011;30138;20.964;105.830;2023-12-22T04:06:59;49.05;;;27.67;;
44434;SDS011;30138;20.964;105.830;2023-12-22T04:12:08;58.33;;;30.52;;
44434;SDS011;30138;20.964;105.830;2023-12-22T04:17:14;58.70;;;30.40;;
44434;SDS011;30138;20.964;105.830;2023-12-22T04:22:20;50.60;;;28.42;;
44434;SDS011;30138;20.964;105.830;2023-12-22T04:27:28;59.10;;;29.40;;
44434;SDS011;30138;20.964;105.830;2023-12-22T04:32:34;48.85;;;27.73;;
44434;SDS011;30138;20.964;105.830;2023-12-22T04:37:40;59.80;;;31.55;;
44434;SDS011;30138;20.964;105.830;2023-12-22T04:42:48;54.15;;;29.90;;
44434;SDS011;30138;20.964;105.830;2023-12-22T04:47:55;54.40;;;30.35;;
44434;SDS011;30138;20.964;105.830;2023-12-22T04:53:00;56.40;;;30.05;;
44434;SDS011;30138;20.964;105.830;2023-12-22T04:58:08;55.95;;;29.13;;
44434;SDS011;30138;20.964;105.830;2023-12-22T05:03:14;51.92;;;29.00;;
44434;SDS011;30138;20.964;105.830;2023-12-22T05:08:20;51.05;;;28.85;;
44434;SDS011;30138;20.964;105.830;2023-12-22T05:13:28;53.90;;;28.38;;
44434;SDS011;30138;20.964;105.830;2023-12-22T05:18:34;55.75;;;28.63;;
44434;SDS011;30138;20.964;105.830;2023-12-22T05:23:41;57.80;;;29.77;;
44434;SDS011;30138;20.964;105.830;2023-12-22T05:28:48;50.03;;;27.48;;
44434;SDS011;30138;20.964;105.830;2023-12-22T05:33:55;53.22;;;28.50;;
44434;SDS011;30138;20.964;105.830;2023-12-22T05:39:01;50.17;;;26.48;;
44434;SDS011;30138;20.964;105.830;2023-12-22T05:44:10;48.38;;;26.65;;
44434;SDS011;30138;20.964;105.830;2023-12-22T05:49:17;53.75;;;27.40;;
44434;SDS011;30138;20.964;105.830;2023-12-22T05:54:23;48.65;;;26.70;;
44434;SDS011;30138;20.964;105.830;2023-12-22T05:59:31;53.50;;;26.98;;
44434;SDS011;30138;20.964;105.830;2023-12-22T06:04:37;53.80;;;27.50;;
44434;SDS011;30138;20.964;105.830;2023-12-22T06:09:45;62.75;;;28.27;;
44434;SDS011;30138;20.964;105.830;2023-12-22T06:14:54;48.83;;;26.95;;
44434;SDS011;30138;20.964;105.830;2023-12-22T06:20:01;51.38;;;26.67;;
44434;SDS011;30138;20.964;105.830;2023-12-22T06:25:08;44.45;;;25.58;;
44434;SDS011;30138;20.964;105.830;2023-12-22T06:30:15;51.10;;;27.35;;
44434;SDS011;30138;20.964;105.830;2023-12-22T06:35:21;50.67;;;25.63;;
44434;SDS011;30138;20.964;105.830;2023-12-22T06:40:27;49.92;;;26.60;;
44434;SDS011;30138;20.964;105.830;2023-12-22T06:45:36;54.60;;;27.15;;
44434;SDS011;30138;20.964;105.830;2023-12-22T06:50:42;50.90;;;26.42;;
44434;SDS011;30138;20.964;105.830;2023-12-22T06:55:48;42.08;;;24.75;;
44434;SDS011;30138;20.964;105.830;2023-12-22T07:00:55;48.88;;;25.88;;
44434;SDS011;30138;20.964;105.830;2023-12-22T07:06:01;49.10;;;26.10;;
44434;SDS011;30138;20.964;105.830;2023-12-22T07:11:08;43.30;;;24.70;;
44434;SDS011;30138;20.964;105.830;2023-12-22T07:16:16;43.05;;;24.85;;
44434;SDS011;30138;20.964;105.830;2023-12-22T07:21:22;44.00;;;24.98;;
44434;SDS011;30138;20.964;105.830;2023-12-22T07:26:28;40.75;;;24.00;;
44434;SDS011;30138;20.964;105.830;2023-12-22T07:31:37;46.92;;;24.98;;
44434;SDS011;30138;20.964;105.830;2023-12-22T07:36:43;39.83;;;23.65;;
44434;SDS011;30138;20.964;105.830;2023-12-22T07:41:49;46.47;;;24.27;;
44434;SDS011;30138;20.964;105.830;2023-12-22T07:46:58;50.03;;;25.77;;
44434;SDS011;30138;20.964;105.830;2023-12-22T07:52:04;37.63;;;22.92;;
44434;SDS011;30138;20.964;105.830;2023-12-22T07:57:11;43.72;;;24.15;;
44434;SDS011;30138;20.964;105.830;2023-12-22T08:02:19;47.53;;;24.40;;
44434;SDS011;30138;20.964;105.830;2023-12-22T08:07:26;39.58;;;22.80;;
44434;SDS011;30138;20.964;105.830;2023-12-22T08:12:32;40.80;;;23.40;;
44434;SDS011;30138;20.964;105.830;2023-12-22T08:17:47;42.78;;;23.95;;
44434;SDS011;30138;20.964;105.830;2023-12-22T08:22:53;42.58;;;24.15;;
44434;SDS011;30138;20.964;105.830;2023-12-22T08:27:59;43.22;;;22.58;;
44434;SDS011;30138;20.964;105.830;2023-12-22T08:33:07;42.47;;;23.35;;
44434;SDS011;30138;20.964;105.830;2023-12-22T08:38:14;46.85;;;24.23;;
44434;SDS011;30138;20.964;105.830;2023-12-22T08:43:20;45.60;;;24.55;;
44434;SDS011;30138;20.964;105.830;2023-12-22T08:48:27;44.65;;;23.27;;
44434;SDS011;30138;20.964;105.830;2023-12-22T08:53:34;42.63;;;23.55;;
44434;SDS011;30138;20.964;105.830;2023-12-22T08:58:40;43.70;;;23.35;;
44434;SDS011;30138;20.964;105.830;2023-12-22T09:03:48;38.60;;;23.20;;
44434;SDS011;30138;20.964;105.830;2023-12-22T09:08:54;42.95;;;24.20;;
44434;SDS011;30138;20.964;105.830;2023-12-22T09:14:00;41.97;;;24.65;;
44434;SDS011;30138;20.964;105.830;2023-12-22T09:19:09;39.92;;;24.08;;
44434;SDS011;30138;20.964;105.830;2023-12-22T09:24:15;47.20;;;26.23;;
44434;SDS011;30138;20.964;105.830;2023-12-22T09:29:22;43.30;;;24.63;;
44434;SDS011;30138;20.964;105.830;2023-12-22T09:34:30;46.75;;;24.30;;
44434;SDS011;30138;20.964;105.830;2023-12-22T09:39:37;41.47;;;23.92;;
44434;SDS011;30138;20.964;105.830;2023-12-22T09:44:43;46.35;;;25.67;;
44434;SDS011;30138;20.964;105.830;2023-12-22T09:49:53;50.28;;;26.98;;
44434;SDS011;30138;20.964;105.830;2023-12-22T09:54:59;46.08;;;26.33;;
44434;SDS011;30138;20.964;105.830;2023-12-22T10:00:08;49.95;;;25.52;;
44434;SDS011;30138;20.964;105.830;2023-12-22T10:05:18;49.33;;;26.20;;
44434;SDS011;30138;20.964;105.830;2023-12-22T10:10:23;52.38;;;27.80;;
44434;SDS011;30138;20.964;105.830;2023-12-22T10:15:32;55.22;;;28.45;;
44434;SDS011;30138;20.964;105.830;2023-12-22T10:20:43;50.65;;;28.70;;
44434;SDS011;30138;20.964;105.830;2023-12-22T10:25:50;55.20;;;27.83;;
44434;SDS011;30138;20.964;105.830;2023-12-22T10:30:58;53.08;;;27.50;;
44434;SDS011;30138;20.964;105.830;2023-12-22T10:36:09;55.88;;;29.20;;
44434;SDS011;30138;20.964;105.830;2023-12-22T10:41:15;52.72;;;29.80;;
44434;SDS011;30138;20.964;105.830;2023-12-22T10:46:23;64.03;;;30.63;;
44434;SDS011;30138;20.964;105.830;2023-12-22T10:51:31;58.45;;;32.05;;
44434;SDS011;30138;20.964;105.830;2023-12-22T10:56:37;65.55;;;34.67;;
44434;SDS011;30138;20.964;105.830;2023-12-22T11:01:43;67.50;;;35.17;;
44434;SDS011;30138;20.964;105.830;2023-12-22T11:06:54;74.00;;;37.78;;
44434;SDS011;30138;20.964;105.830;2023-12-22T11:12:03;71.38;;;37.03;;
44434;SDS011;30138;20.964;105.830;2023-12-22T11:17:12;73.47;;;39.88;;
44434;SDS011;30138;20.964;105.830;2023-12-22T11:22:21;84.45;;;42.83;;
44434;SDS011;30138;20.964;105.830;2023-12-22T11:27:28;84.95;;;45.92;;
44434;SDS011;30138;20.964;105.830;2023-12-22T11:32:37;86.85;;;45.85;;
44434;SDS011;30138;20.964;105.830;2023-12-22T11:37:47;90.70;;;47.85;;
44434;SDS011;30138;20.964;105.830;2023-12-22T11:42:55;96.82;;;48.13;;
44434;SDS011;30138;20.964;105.830;2023-12-22T11:48:07;107.90;;;49.83;;
44434;SDS011;30138;20.964;105.830;2023-12-22T11:53:20;95.70;;;49.30;;
44434;SDS011;30138;20.964;105.830;2023-12-22T11:58:35;110.93;;;48.47;;
44434;SDS011;30138;20.964;105.830;2023-12-22T12:03:48;109.35;;;52.53;;
44434;SDS011;30138;20.964;105.830;2023-12-22T12:08:56;116.70;;;57.17;;
44434;SDS011;30138;20.964;105.830;2023-12-22T12:14:06;119.75;;;61.00;;
44434;SDS011;30138;20.964;105.830;2023-12-22T12:19:17;124.00;;;59.83;;
44434;SDS011;30138;20.964;105.830;2023-12-22T12:24:27;130.18;;;64.10;;
44434;SDS011;30138;20.964;105.830;2023-12-22T12:29:34;134.77;;;64.65;;
44434;SDS011;30138;20.964;105.830;2023-12-22T12:34:42;135.27;;;67.20;;
44434;SDS011;30138;20.964;105.830;2023-12-22T12:39:51;132.93;;;67.55;;
44434;SDS011;30138;20.964;105.830;2023-12-22T12:45:03;135.35;;;68.20;;
44434;SDS011;30138;20.964;105.830;2023-12-22T12:50:11;142.60;;;68.78;;
44434;SDS011;30138;20.964;105.830;2023-12-22T12:55:19;135.65;;;70.85;;
44434;SDS011;30138;20.964;105.830;2023-12-22T13:00:26;150.80;;;74.07;;
44434;SDS011;30138;20.964;105.830;2023-12-22T13:05:32;153.90;;;73.70;;
44434;SDS011;30138;20.964;105.830;2023-12-22T13:10:40;155.30;;;74.28;;
44434;SDS011;30138;20.964;105.830;2023-12-22T13:15:46;165.73;;;81.38;;
44434;SDS011;30138;20.964;105.830;2023-12-22T13:20:53;189.57;;;90.90;;
44434;SDS011;30138;20.964;105.830;2023-12-22T13:26:03;206.73;;;100.10;;
44434;SDS011;30138;20.964;105.830;2023-12-22T13:31:10;215.75;;;99.65;;
44434;SDS011;30138;20.964;105.830;2023-12-22T13:36:19;232.60;;;105.47;;
44434;SDS011;30138;20.964;105.830;2023-12-22T13:41:27;238.70;;;104.25;;
44434;SDS011;30138;20.964;105.830;2023-12-22T13:46:35;197.43;;;97.68;;
44434;SDS011;30138;20.964;105.830;2023-12-22T13:51:44;211.88;;;96.22;;
44434;SDS011;30138;20.964;105.830;2023-12-22T13:56:52;210.07;;;96.40;;
44434;SDS011;30138;20.964;105.830;2023-12-22T14:01:58;202.95;;;91.93;;
44434;SDS011;30138;20.964;105.830;2023-12-22T14:07:05;192.85;;;88.35;;
44434;SDS011;30138;20.964;105.830;2023-12-22T14:12:14;184.73;;;84.97;;
44434;SDS011;30138;20.964;105.830;2023-12-22T14:17:21;170.27;;;80.68;;
44434;SDS011;30138;20.964;105.830;2023-12-22T14:22:27;187.38;;;84.93;;
44434;SDS011;30138;20.964;105.830;2023-12-22T14:27:35;187.25;;;82.82;;
44434;SDS011;30138;20.964;105.830;2023-12-22T14:32:42;164.63;;;78.18;;
44434;SDS011;30138;20.964;105.830;2023-12-22T14:37:49;168.98;;;77.82;;
44434;SDS011;30138;20.964;105.830;2023-12-22T14:42:57;161.35;;;71.63;;
44434;SDS011;30138;20.964;105.830;2023-12-22T14:48:04;154.38;;;69.80;;
44434;SDS011;30138;20.964;105.830;2023-12-22T14:53:11;133.57;;;64.07;;
44434;SDS011;30138;20.964;105.830;2023-12-22T14:58:19;128.38;;;60.90;;
44434;SDS011;30138;20.964;105.830;2023-12-22T15:03:25;119.97;;;60.08;;
44434;SDS011;30138;20.964;105.830;2023-12-22T15:08:31;114.57;;;57.20;;
44434;SDS011;30138;20.964;105.830;2023-12-22T15:13:40;113.70;;;55.40;;
44434;SDS011;30138;20.964;105.830;2023-12-22T15:18:46;108.25;;;54.28;;
44434;SDS011;30138;20.964;105.830;2023-12-22T15:23:52;106.10;;;52.20;;
44434;SDS011;30138;20.964;105.830;2023-12-22T15:29:01;101.38;;;49.53;;
44434;SDS011;30138;20.964;105.830;2023-12-22T15:34:07;108.50;;;50.40;;
44434;SDS011;30138;20.964;105.830;2023-12-22T15:39:14;99.88;;;48.42;;
44434;SDS011;30138;20.964;105.830;2023-12-22T15:44:22;106.03;;;48.97;;
44434;SDS011;30138;20.964;105.830;2023-12-22T15:49:30;98.60;;;46.15;;
44434;SDS011;30138;20.964;105.830;2023-12-22T15:54:38;89.90;;;43.75;;
44434;SDS011;30138;20.964;105.830;2023-12-22T15:59:48;86.45;;;42.38;;
44434;SDS011;30138;20.964;105.830;2023-12-22T16:04:54;79.20;;;41.65;;
44434;SDS011;30138;20.964;105.830;2023-12-22T16:10:02;70.30;;;37.40;;
44434;SDS011;30138;20.964;105.830;2023-12-22T16:15:12;84.20;;;37.53;;
44434;SDS011;30138;20.964;105.830;2023-12-22T16:20:19;66.63;;;34.95;;
44434;SDS011;30138;20.964;105.830;2023-12-22T16:25:27;64.63;;;34.45;;
44434;SDS011;30138;20.964;105.830;2023-12-22T16:30:34;69.13;;;34.72;;
44434;SDS011;30138;20.964;105.830;2023-12-22T16:35:40;67.55;;;34.45;;
44434;SDS011;30138;20.964;105.830;2023-12-22T16:40:47;66.03;;;33.40;;
44434;SDS011;30138;20.964;105.830;2023-12-22T16:45:56;67.53;;;34.38;;
44434;SDS011;30138;20.964;105.830;2023-12-22T16:51:03;63.55;;;33.40;;
44434;SDS011;30138;20.964;105.830;2023-12-22T16:56:11;64.15;;;33.67;;
44434;SDS011;30138;20.964;105.830;2023-12-22T17:01:19;70.32;;;35.95;;
44434;SDS011;30138;20.964;105.830;2023-12-22T17:06:25;70.80;;;34.30;;
44434;SDS011;30138;20.964;105.830;2023-12-22T17:11:31;73.28;;;35.70;;
44434;SDS011;30138;20.964;105.830;2023-12-22T17:16:40;74.97;;;35.50;;
44434;SDS011;30138;20.964;105.830;2023-12-22T17:21:47;72.00;;;35.17;;
44434;SDS011;30138;20.964;105.830;2023-12-22T17:26:55;73.93;;;34.00;;
44434;SDS011;30138;20.964;105.830;2023-12-22T17:32:04;75.97;;;33.38;;
44434;SDS011;30138;20.964;105.830;2023-12-22T17:37:11;70.18;;;31.52;;
44434;SDS011;30138;20.964;105.830;2023-12-22T17:42:17;62.55;;;31.27;;
44434;SDS011;30138;20.964;105.830;2023-12-22T17:47:26;68.45;;;31.08;;
44434;SDS011;30138;20.964;105.830;2023-12-22T17:52:33;61.80;;;31.50;;
44434;SDS011;30138;20.964;105.830;2023-12-22T17:57:40;66.95;;;29.77;;
44434;SDS011;30138;20.964;105.830;2023-12-22T18:02:48;61.78;;;31.77;;
44434;SDS011;30138;20.964;105.830;2023-12-22T18:07:54;62.58;;;30.27;;
44434;SDS011;30138;20.964;105.830;2023-12-22T18:13:00;43.35;;;22.27;;
44434;SDS011;30138;20.964;105.830;2023-12-22T18:18:08;61.58;;;28.92;;
44434;SDS011;30138;20.964;105.830;2023-12-22T18:23:15;60.88;;;30.38;;
44434;SDS011;30138;20.964;105.830;2023-12-22T18:28:22;62.22;;;28.67;;
44434;SDS011;30138;20.964;105.830;2023-12-22T18:33:32;61.38;;;29.85;;
44434;SDS011;30138;20.964;105.830;2023-12-22T18:38:39;59.63;;;29.20;;
44434;SDS011;30138;20.964;105.830;2023-12-22T18:43:46;47.47;;;21.27;;
44434;SDS011;30138;20.964;105.830;2023-12-22T18:48:55;62.42;;;29.88;;
44434;SDS011;30138;20.964;105.830;2023-12-22T18:54:01;62.80;;;29.38;;
44434;SDS011;30138;20.964;105.830;2023-12-22T18:59:10;64.80;;;31.20;;
44434;SDS011;30138;20.964;105.830;2023-12-22T19:04:18;62.40;;;30.75;;
44434;SDS011;30138;20.964;105.830;2023-12-22T19:09:24;63.42;;;31.15;;
44434;SDS011;30138;20.964;105.830;2023-12-22T19:14:30;66.75;;;32.47;;
44434;SDS011;30138;20.964;105.830;2023-12-22T19:19:38;60.17;;;33.97;;
44434;SDS011;30138;20.964;105.830;2023-12-22T19:24:45;74.68;;;35.00;;
44434;SDS011;30138;20.964;105.830;2023-12-22T19:29:53;66.05;;;35.50;;
44434;SDS011;30138;20.964;105.830;2023-12-22T19:35:02;75.45;;;38.05;;
44434;SDS011;30138;20.964;105.830;2023-12-22T19:40:09;83.00;;;39.92;;
44434;SDS011;30138;20.964;105.830;2023-12-22T19:45:15;83.05;;;42.03;;
44434;SDS011;30138;20.964;105.830;2023-12-22T19:50:23;85.72;;;42.85;;
44434;SDS011;30138;20.964;105.830;2023-12-22T19:55:30;85.85;;;42.05;;
44434;SDS011;30138;20.964;105.830;2023-12-22T20:00:37;83.43;;;41.83;;
44434;SDS011;30138;20.964;105.830;2023-12-22T20:05:47;76.97;;;40.97;;
44434;SDS011;30138;20.964;105.830;2023-12-22T20:10:53;81.93;;;38.80;;
44434;SDS011;30138;20.964;105.830;2023-12-22T20:16:00;82.35;;;39.97;;
44434;SDS011;30138;20.964;105.830;2023-12-22T20:21:09;83.43;;;40.65;;
44434;SDS011;30138;20.964;105.830;2023-12-22T20:26:16;92.18;;;42.92;;
44434;SDS011;30138;20.964;105.830;2023-12-22T20:31:23;90.85;;;43.70;;
44434;SDS011;30138;20.964;105.830;2023-12-22T20:36:30;93.65;;;47.80;;
44434;SDS011;30138;20.964;105.830;2023-12-22T20:41:36;77.63;;;38.20;;
44434;SDS011;30138;20.964;105.830;2023-12-22T20:46:42;112.60;;;52.30;;
44434;SDS011;30138;20.964;105.830;2023-12-22T20:51:50;81.55;;;39.15;;
44434;SDS011;30138;20.964;105.830;2023-12-22T20:56:57;115.38;;;51.55;;
44434;SDS011;30138;20.964;105.830;2023-12-22T21:02:05;102.53;;;49.20;;
44434;SDS011;30138;20.964;105.830;2023-12-22T21:07:14;103.10;;;47.35;;
44434;SDS011;30138;20.964;105.830;2023-12-22T21:12:25;91.35;;;46.47;;
44434;SDS011;30138;20.964;105.830;2023-12-22T21:17:32;65.97;;;34.33;;
44434;SDS011;30138;20.964;105.830;2023-12-22T21:22:42;92.70;;;46.17;;
44434;SDS011;30138;20.964;105.830;2023-12-22T21:27:49;93.50;;;45.28;;
44434;SDS011;30138;20.964;105.830;2023-12-22T21:32:54;94.13;;;44.33;;
44434;SDS011;30138;20.964;105.830;2023-12-22T21:38:05;88.30;;;44.05;;
44434;SDS011;30138;20.964;105.830;2023-12-22T21:43:10;62.05;;;31.38;;
44434;SDS011;30138;20.964;105.830;2023-12-22T21:48:16;78.50;;;42.35;;
44434;SDS011;30138;20.964;105.830;2023-12-22T21:53:25;60.88;;;30.45;;
44434;SDS011;30138;20.964;105.830;2023-12-22T21:58:32;85.13;;;42.90;;
44434;SDS011;30138;20.964;105.830;2023-12-22T22:03:39;88.22;;;43.55;;
44434;SDS011;30138;20.964;105.830;2023-12-22T22:08:46;60.90;;;30.75;;
44434;SDS011;30138;20.964;105.830;2023-12-22T22:13:53;91.55;;;42.35;;
44434;SDS011;30138;20.964;105.830;2023-12-22T22:18:59;59.70;;;33.22;;
44434;SDS011;30138;20.964;105.830;2023-12-22T22:24:07;86.28;;;44.22;;
44434;SDS011;30138;20.964;105.830;2023-12-22T22:29:13;63.13;;;33.33;;
44434;SDS011;30138;20.964;105.830;2023-12-22T22:34:19;93.68;;;45.00;;
44434;SDS011;30138;20.964;105.830;2023-12-22T22:39:27;99.05;;;47.03;;
44434;SDS011;30138;20.964;105.830;2023-12-22T22:44:32;66.65;;;34.00;;
44434;SDS011;30138;20.964;105.830;2023-12-22T22:49:45;92.63;;;46.28;;
44434;SDS011;30138;20.964;105.830;2023-12-22T22:54:53;72.53;;;35.25;;
44434;SDS011;30138;20.964;105.830;2023-12-22T22:59:59;95.47;;;47.22;;
44434;SDS011;30138;20.964;105.830;2023-12-22T23:05:13;60.47;;;34.42;;
44434;SDS011;30138;20.964;105.830;2023-12-22T23:10:20;103.93;;;49.10;;
44434;SDS011;30138;20.964;105.830;2023-12-22T23:15:26;102.25;;;48.40;;
44434;SDS011;30138;20.964;105.830;2023-12-22T23:20:33;94.80;;;46.00;;
44434;SDS011;30138;20.964;105.830;2023-12-22T23:25:41;96.78;;;46.80;;
44434;SDS011;30138;20.964;105.830;2023-12-22T23:30:49;96.53;;;47.35;;
44434;SDS011;30138;20.964;105.830;2023-12-22T23:35:55;75.30;;;34.97;;
44434;SDS011;30138;20.964;105.830;2023-12-22T23:41:02;98.78;;;46.85;;
44434;SDS011;30138;20.964;105.830;2023-12-22T23:46:08;92.05;;;46.28;;
44434;SDS011;30138;20.964;105.830;2023-12-22T23:51:14;99.53;;;45.58;;
44434;SDS011;30138;20.964;105.830;2023-12-22T23:56:22;91.78;;;43.72;;
